createdAt,value
2022-09-17T00:00:50.481Z,9.00
2022-09-17T00:03:17.593Z,8.90
2022-09-17T00:05:44.678Z,8.90
2022-09-17T00:08:14.927Z,9.00
2022-09-17T00:10:43.383Z,9.00
2022-09-17T00:13:10.868Z,9.10
2022-09-17T00:15:42.565Z,9.10
2022-09-17T00:18:09.700Z,9.10
2022-09-17T00:20:47.383Z,9.20
2022-09-17T00:23:14.822Z,9.20
2022-09-17T00:25:44.627Z,9.20
2022-09-17T00:28:13.785Z,9.10
2022-09-17T00:30:42.546Z,9.20
2022-09-17T00:33:12.288Z,8.90
2022-09-17T00:35:38.954Z,8.90
2022-09-17T00:38:05.922Z,8.80
2022-09-17T00:40:32.767Z,8.80
2022-09-17T00:42:59.487Z,8.70
2022-09-17T00:45:27.669Z,8.70
2022-09-17T00:48:06.296Z,8.70
2022-09-17T00:50:41.436Z,8.70
2022-09-17T00:53:15.039Z,8.60
2022-09-17T00:55:59.088Z,8.60
2022-09-17T00:58:26.838Z,8.60
2022-09-17T01:00:53.599Z,8.60
2022-09-17T01:03:20.397Z,8.50
2022-09-17T01:06:30.316Z,8.50
2022-09-17T01:09:40.987Z,8.40
2022-09-17T01:12:07.707Z,8.30
2022-09-17T01:15:02.101Z,8.50
2022-09-17T01:18:22.749Z,8.50
2022-09-17T01:21:16.936Z,8.50
2022-09-17T01:24:17.912Z,8.50
2022-09-17T01:26:54.786Z,8.60
2022-09-17T01:29:54.659Z,8.50
2022-09-17T01:32:45.982Z,8.40
2022-09-17T01:35:19.325Z,8.40
2022-09-17T01:38:11.744Z,8.40
2022-09-17T01:41:13.528Z,8.30
2022-09-17T01:44:03.262Z,8.30
2022-09-17T01:46:36.771Z,8.30
2022-09-17T01:49:06.674Z,8.30
2022-09-17T01:51:43.251Z,8.20
2022-09-17T01:54:33.603Z,8.30
2022-09-17T01:57:12.774Z,8.40
2022-09-17T02:00:01.767Z,8.30
2022-09-17T02:03:06.741Z,8.40
2022-09-17T02:05:48.626Z,8.30
2022-09-17T02:08:20.680Z,8.40
2022-09-17T02:10:58.299Z,8.40
2022-09-17T02:13:36.737Z,8.40
2022-09-17T02:16:13.375Z,8.50
2022-09-17T02:18:44.216Z,8.40
2022-09-17T02:21:39.057Z,8.40
2022-09-17T02:24:24.136Z,8.40
2022-09-17T02:27:00.091Z,8.40
2022-09-17T02:29:34.783Z,8.50
2022-09-17T02:32:01.946Z,8.50
2022-09-17T02:34:29.538Z,8.50
2022-09-17T02:37:01.128Z,8.40
2022-09-17T02:39:28.568Z,8.40
2022-09-17T02:42:13.222Z,8.40
2022-09-17T02:44:54.959Z,8.30
2022-09-17T02:47:33.597Z,8.20
2022-09-17T02:50:05.101Z,8.20
2022-09-17T02:52:44.383Z,8.20
2022-09-17T02:55:19.035Z,8.10
2022-09-17T02:57:57.590Z,8.20
2022-09-17T03:00:26.122Z,8.20
2022-09-17T03:03:14.378Z,8.10
2022-09-17T03:05:43.792Z,8.00
2022-09-17T03:08:14.329Z,7.90
2022-09-17T03:10:41.331Z,7.90
2022-09-17T03:13:08.165Z,7.90
2022-09-17T03:15:34.890Z,7.80
2022-09-17T03:18:01.934Z,7.80
2022-09-17T03:20:28.631Z,7.70
2022-09-17T03:22:55.274Z,7.60
2022-09-17T03:25:22.149Z,7.60
2022-09-17T03:27:48.921Z,7.50
2022-09-17T03:30:15.753Z,7.40
2022-09-17T03:32:42.512Z,7.40
2022-09-17T03:35:09.300Z,7.40
2022-09-17T03:37:36.259Z,7.40
2022-09-17T03:40:03.385Z,7.50
2022-09-17T03:42:30.432Z,7.50
2022-09-17T03:44:57.270Z,7.40
2022-09-17T03:47:23.994Z,7.40
2022-09-17T03:49:52.198Z,7.50
2022-09-17T03:52:19.005Z,7.40
2022-09-17T03:54:45.676Z,7.40
2022-09-17T03:57:12.483Z,7.40
2022-09-17T03:59:39.829Z,7.40
2022-09-17T04:02:06.854Z,7.40
2022-09-17T04:04:34.117Z,7.50
2022-09-17T04:07:00.797Z,7.50
2022-09-17T04:09:27.493Z,7.50
2022-09-17T04:11:54.174Z,7.50
2022-09-17T04:14:21.017Z,7.50
2022-09-17T04:16:47.791Z,7.50
2022-09-17T04:19:14.568Z,7.50
2022-09-17T04:21:41.250Z,7.50
2022-09-17T04:24:07.992Z,7.50
2022-09-17T04:26:34.770Z,7.50
2022-09-17T04:29:01.593Z,7.60
2022-09-17T04:31:28.404Z,7.60
2022-09-17T04:33:55.300Z,7.60
2022-09-17T04:36:21.986Z,7.70
2022-09-17T04:38:49.331Z,7.60
2022-09-17T04:41:16.070Z,7.60
2022-09-17T04:43:42.822Z,7.60
2022-09-17T04:46:09.571Z,7.70
2022-09-17T04:48:36.425Z,7.70
2022-09-17T04:51:03.255Z,7.70
2022-09-17T04:53:29.942Z,7.70
2022-09-17T04:55:56.637Z,7.80
2022-09-17T04:58:23.472Z,7.70
2022-09-17T05:00:50.736Z,7.70
2022-09-17T05:03:17.689Z,7.70
2022-09-17T05:05:44.373Z,7.70
2022-09-17T05:08:11.767Z,7.70
2022-09-17T05:10:38.530Z,7.70
2022-09-17T05:13:05.219Z,7.70
2022-09-17T05:15:31.910Z,7.60
2022-09-17T05:17:58.870Z,7.70
2022-09-17T05:20:25.638Z,7.60
2022-09-17T05:22:52.922Z,7.60
2022-09-17T05:25:24.516Z,7.60
2022-09-17T05:27:53.084Z,7.50
2022-09-17T05:30:20.192Z,7.50
2022-09-17T05:32:47.210Z,7.60
2022-09-17T05:35:14.196Z,7.50
2022-09-17T05:37:41.139Z,7.50
2022-09-17T05:40:09.061Z,7.60
2022-09-17T05:42:35.930Z,7.60
2022-09-17T05:45:02.987Z,7.60
2022-09-17T05:47:29.773Z,7.60
2022-09-17T05:49:56.829Z,7.60
2022-09-17T05:52:28.144Z,7.50
2022-09-17T05:54:55.924Z,7.60
2022-09-17T05:57:22.893Z,7.50
2022-09-17T05:59:49.577Z,7.50
2022-09-17T06:02:16.361Z,7.50
2022-09-17T06:04:43.190Z,7.50
2022-09-17T06:07:10.112Z,7.60
2022-09-17T06:09:41.047Z,7.70
2022-09-17T06:12:08.317Z,7.70
2022-09-17T06:14:35.016Z,7.60
2022-09-17T06:17:01.670Z,7.60
2022-09-17T06:19:28.631Z,7.70
2022-09-17T06:21:55.746Z,7.80
2022-09-17T06:24:22.883Z,7.80
2022-09-17T06:26:49.703Z,7.80
2022-09-17T06:29:16.470Z,7.80
2022-09-17T06:31:44.842Z,7.80
2022-09-17T06:34:11.960Z,7.80
2022-09-17T06:36:38.856Z,7.80
2022-09-17T06:39:06.118Z,7.80
2022-09-17T06:41:33.188Z,7.80
2022-09-17T06:44:02.110Z,7.80
2022-09-17T06:46:28.994Z,7.80
2022-09-17T06:48:55.982Z,8.00
2022-09-17T06:51:23.462Z,7.90
2022-09-17T06:53:50.227Z,7.90
2022-09-17T06:56:17.789Z,8.10
2022-09-17T06:58:44.747Z,8.10
2022-09-17T07:01:12.861Z,8.10
2022-09-17T07:03:42.841Z,8.10
2022-09-17T07:06:10.793Z,8.30
2022-09-17T07:08:38.302Z,8.40
2022-09-17T07:11:05.605Z,8.50
2022-09-17T07:13:32.411Z,8.50
2022-09-17T07:16:01.207Z,8.50
2022-09-17T07:18:28.470Z,8.60
2022-09-17T07:20:59.903Z,8.70
2022-09-17T07:23:32.199Z,8.60
2022-09-17T07:26:04.854Z,8.70
2022-09-17T07:28:32.054Z,8.70
2022-09-17T07:30:58.961Z,8.70
2022-09-17T07:33:27.746Z,8.70
2022-09-17T07:35:59.751Z,8.80
2022-09-17T07:38:27.867Z,8.80
2022-09-17T07:40:58.737Z,8.70
2022-09-17T07:43:27.195Z,8.80
2022-09-17T07:45:54.910Z,8.80
2022-09-17T07:48:21.660Z,8.80
2022-09-17T07:50:48.674Z,8.80
2022-09-17T07:53:16.717Z,8.80
2022-09-17T07:55:50.829Z,8.80
2022-09-17T07:58:17.492Z,8.80
2022-09-17T08:00:44.191Z,8.80
2022-09-17T08:03:10.922Z,8.90
2022-09-17T08:05:38.324Z,8.80
2022-09-17T08:08:05.294Z,8.70
2022-09-17T08:10:32.056Z,8.70
2022-09-17T08:12:59.058Z,8.80
2022-09-17T08:15:26.228Z,8.90
2022-09-17T08:17:53.203Z,8.90
2022-09-17T08:20:20.281Z,8.90
2022-09-17T08:22:50.201Z,9.00
2022-09-17T08:25:17.614Z,9.00
2022-09-17T08:27:44.330Z,9.10
2022-09-17T08:30:12.185Z,9.10
2022-09-17T08:32:39.175Z,9.20
2022-09-17T08:35:06.952Z,9.30
2022-09-17T08:37:33.643Z,9.50
2022-09-17T08:40:00.578Z,9.50
2022-09-17T08:42:49.954Z,9.50
2022-09-17T08:45:19.076Z,9.40
2022-09-17T08:47:46.743Z,9.30
2022-09-17T08:50:29.331Z,9.20
2022-09-17T08:53:24.290Z,9.40
2022-09-17T08:56:11.747Z,9.50
2022-09-17T08:58:59.807Z,9.50
2022-09-17T09:02:05.030Z,9.40
2022-09-17T09:04:47.565Z,9.40
2022-09-17T09:07:21.714Z,9.40
2022-09-17T09:10:04.764Z,9.40
2022-09-17T09:12:35.588Z,9.50
2022-09-17T09:15:07.386Z,9.40
2022-09-17T09:17:44.730Z,9.50
2022-09-17T09:20:24.458Z,9.50
2022-09-17T09:22:52.740Z,9.50
2022-09-17T09:25:27.035Z,9.60
2022-09-17T09:28:12.587Z,9.70
2022-09-17T09:31:02.165Z,9.80
2022-09-17T09:33:35.728Z,9.70
2022-09-17T09:36:02.569Z,9.80
2022-09-17T09:38:38.546Z,9.80
2022-09-17T09:41:12.159Z,9.70
2022-09-17T09:44:03.718Z,9.50
2022-09-17T09:47:05.083Z,9.60
2022-09-17T09:49:55.602Z,9.60
2022-09-17T09:52:40.982Z,9.50
2022-09-17T09:55:32.615Z,9.40
2022-09-17T09:58:10.624Z,9.40
2022-09-17T10:00:39.696Z,9.40
2022-09-17T10:03:22.365Z,9.40
2022-09-17T10:05:59.552Z,9.50
2022-09-17T10:08:27.708Z,9.60
2022-09-17T10:11:05.028Z,9.70
2022-09-17T10:13:35.648Z,9.90
2022-09-17T10:16:20.734Z,10.20
2022-09-17T10:18:49.541Z,10.50
2022-09-17T10:21:37.118Z,10.50
2022-09-17T10:24:11.716Z,10.40
2022-09-17T10:26:38.436Z,10.50
2022-09-17T10:29:12.291Z,10.40
2022-09-17T10:31:56.663Z,10.30
2022-09-17T10:34:29.047Z,10.30
2022-09-17T10:36:57.321Z,10.40
2022-09-17T10:39:27.555Z,10.50
2022-09-17T10:41:58.448Z,10.80
2022-09-17T10:44:28.637Z,11.00
2022-09-17T10:47:01.577Z,11.20
2022-09-17T10:50:08.880Z,11.10
2022-09-17T10:52:38.749Z,11.00
2022-09-17T10:55:29.481Z,10.60
2022-09-17T10:58:08.431Z,10.60
2022-09-17T11:01:04.922Z,10.50
2022-09-17T11:04:11.385Z,10.60
2022-09-17T11:07:02.081Z,10.80
2022-09-17T11:10:04.122Z,10.70
2022-09-17T11:12:56.458Z,10.70
2022-09-17T11:15:42.788Z,10.50
2022-09-17T11:18:34.043Z,10.70
2022-09-17T11:21:22.805Z,10.80
2022-09-17T11:24:23.638Z,10.70
2022-09-17T11:27:15.287Z,10.50
2022-09-17T11:30:03.659Z,10.40
2022-09-17T11:32:42.553Z,10.70
2022-09-17T11:35:23.773Z,10.70
2022-09-17T11:38:01.810Z,10.90
2022-09-17T11:40:39.096Z,11.20
2022-09-17T11:43:28.509Z,11.10
2022-09-17T11:46:13.332Z,11.20
2022-09-17T11:48:58.852Z,11.30
2022-09-17T11:51:44.297Z,11.40
2022-09-17T11:54:30.176Z,11.50
2022-09-17T11:57:14.516Z,11.60
2022-09-17T11:59:52.508Z,11.60
2022-09-17T12:02:53.196Z,11.40
2022-09-17T12:05:28.666Z,11.30
2022-09-17T12:08:24.208Z,11.20
2022-09-17T12:11:20.559Z,11.30
2022-09-17T12:14:09.845Z,10.90
2022-09-17T12:16:46.370Z,10.60
2022-09-17T12:19:34.349Z,10.50
2022-09-17T12:22:09.743Z,10.50
2022-09-17T12:24:37.874Z,10.60
2022-09-17T12:27:28.808Z,10.90
2022-09-17T12:30:13.766Z,11.10
2022-09-17T12:33:03.250Z,11.10
2022-09-17T12:36:06.748Z,11.10
2022-09-17T12:38:33.614Z,11.00
2022-09-17T12:41:13.097Z,10.90
2022-09-17T12:44:02.308Z,11.00
2022-09-17T12:47:03.608Z,11.20
2022-09-17T12:49:46.180Z,11.70
2022-09-17T12:52:54.015Z,12.00
2022-09-17T12:55:44.208Z,11.70
2022-09-17T12:58:50.673Z,11.50
2022-09-17T13:01:23.907Z,11.60
2022-09-17T13:03:58.121Z,11.80
2022-09-17T13:06:59.088Z,11.90
2022-09-17T13:10:01.735Z,12.10
2022-09-17T13:13:06.541Z,12.20
2022-09-17T13:15:39.273Z,12.40
2022-09-17T13:18:27.523Z,12.60
2022-09-17T13:21:03.189Z,12.50
2022-09-17T13:23:35.264Z,12.50
2022-09-17T13:26:04.683Z,12.60
2022-09-17T13:31:39.496Z,12.10
2022-09-17T13:34:18.981Z,11.70
2022-09-17T13:36:53.936Z,11.60
2022-09-17T13:39:36.014Z,11.50
2022-09-17T13:42:08.229Z,11.60
2022-09-17T13:44:37.530Z,11.70
2022-09-17T13:47:21.258Z,11.70
2022-09-17T13:49:53.217Z,11.70
2022-09-17T13:52:45.417Z,11.70
2022-09-17T13:55:34.122Z,11.80
2022-09-17T13:58:08.977Z,11.80
2022-09-17T14:00:48.112Z,12.00
2022-09-17T14:03:41.077Z,12.10
2022-09-17T14:06:08.576Z,12.10
2022-09-17T14:08:44.138Z,12.00
2022-09-17T14:11:22.975Z,11.90
2022-09-17T14:14:05.857Z,11.90
2022-09-17T14:16:51.311Z,12.00
2022-09-17T14:19:51.279Z,12.10
2022-09-17T14:22:27.097Z,12.40
2022-09-17T14:24:54.649Z,12.40
2022-09-17T14:27:43.061Z,12.40
2022-09-17T14:30:22.907Z,12.30
2022-09-17T14:33:01.559Z,12.40
2022-09-17T14:35:38.598Z,12.50
2022-09-17T14:38:30.368Z,12.40
2022-09-17T14:41:01.603Z,12.40
2022-09-17T14:43:49.869Z,12.30
2022-09-17T14:46:27.752Z,12.40
2022-09-17T14:48:54.542Z,12.50
2022-09-17T14:51:28.143Z,12.40
2022-09-17T14:54:06.995Z,12.40
2022-09-17T14:56:39.630Z,12.40
2022-09-17T14:59:15.059Z,12.30
2022-09-17T15:01:47.698Z,12.20
2022-09-17T15:04:14.439Z,12.10
2022-09-17T15:06:43.138Z,12.10
2022-09-17T15:09:30.212Z,12.10
2022-09-17T15:12:00.181Z,12.20
2022-09-17T15:14:32.292Z,12.10
2022-09-17T15:17:01.933Z,12.00
2022-09-17T15:19:41.057Z,11.90
2022-09-17T15:22:20.695Z,11.90
2022-09-17T15:24:55.814Z,11.80
2022-09-17T15:27:32.498Z,11.80
2022-09-17T15:30:20.300Z,11.70
2022-09-17T15:32:58.997Z,11.60
2022-09-17T15:35:32.313Z,11.50
2022-09-17T15:40:49.556Z,11.50
2022-09-17T15:43:30.748Z,11.50
2022-09-17T15:46:00.686Z,11.50
2022-09-17T15:48:37.397Z,11.60
2022-09-17T15:51:12.659Z,11.60
2022-09-17T15:53:39.768Z,11.40
2022-09-17T15:56:15.837Z,11.20
2022-09-17T15:58:42.784Z,11.20
2022-09-17T16:01:19.775Z,11.20
2022-09-17T16:03:46.562Z,11.20
2022-09-17T16:06:19.492Z,11.20
2022-09-17T16:08:55.900Z,11.20
2022-09-17T16:11:24.695Z,11.30
2022-09-17T16:13:56.927Z,11.20
2022-09-17T16:16:37.164Z,11.30
2022-09-17T16:19:06.472Z,11.30
2022-09-17T16:21:33.234Z,11.30
2022-09-17T16:24:00.167Z,11.20
2022-09-17T16:26:32.151Z,11.00
2022-09-17T16:29:04.719Z,11.00
2022-09-17T16:31:31.974Z,10.90
2022-09-17T16:33:59.119Z,10.90
2022-09-17T16:36:27.229Z,10.80
2022-09-17T16:38:54.109Z,10.80
2022-09-17T16:41:20.990Z,10.50
2022-09-17T16:43:47.982Z,10.60
2022-09-17T16:46:15.322Z,10.40
2022-09-17T16:48:43.693Z,10.40
2022-09-17T16:51:11.824Z,10.40
2022-09-17T16:53:39.833Z,10.10
2022-09-17T16:56:11.147Z,10.10
2022-09-17T16:58:38.652Z,10.10
2022-09-17T17:01:09.900Z,10.10
2022-09-17T17:03:36.948Z,10.10
2022-09-17T17:06:04.264Z,10.00
2022-09-17T17:08:34.502Z,10.10
2022-09-17T17:11:01.622Z,10.00
2022-09-17T17:13:28.882Z,10.00
2022-09-17T17:15:55.810Z,10.00
2022-09-17T17:18:22.912Z,9.90
2022-09-17T17:20:49.838Z,9.90
2022-09-17T17:23:17.360Z,9.90
2022-09-17T17:25:44.087Z,9.80
2022-09-17T17:28:11.211Z,9.90
2022-09-17T17:30:38.483Z,9.80
2022-09-17T17:33:05.530Z,9.70
2022-09-17T17:35:32.517Z,9.70
2022-09-17T17:37:59.328Z,9.60
2022-09-17T17:40:26.762Z,9.70
2022-09-17T17:42:55.736Z,9.60
2022-09-17T17:45:22.512Z,9.60
2022-09-17T17:47:49.246Z,9.60
2022-09-17T17:50:16.182Z,9.50
2022-09-17T17:52:48.009Z,9.40
2022-09-17T17:55:16.104Z,9.50
2022-09-17T17:57:42.924Z,9.50
2022-09-17T18:00:12.324Z,9.50
2022-09-17T18:02:40.265Z,9.50
2022-09-17T18:05:07.485Z,9.50
2022-09-17T18:07:34.579Z,9.50
2022-09-17T18:10:01.458Z,9.50
2022-09-17T18:12:28.306Z,9.40
2022-09-17T18:14:55.043Z,9.40
2022-09-17T18:17:21.866Z,9.40
2022-09-17T18:19:48.664Z,9.40
2022-09-17T18:22:15.408Z,9.40
2022-09-17T18:24:42.207Z,9.30
2022-09-17T18:27:09.068Z,9.20
2022-09-17T18:29:35.895Z,9.20
2022-09-17T18:32:02.860Z,9.10
2022-09-17T18:34:30.023Z,9.00
2022-09-17T18:36:56.789Z,9.10
2022-09-17T18:39:56.897Z,9.10
2022-09-17T18:42:10.447Z,9.10
2022-09-17T18:44:37.194Z,9.10
2022-09-17T18:47:04.413Z,9.10
2022-09-17T18:49:31.550Z,9.00
2022-09-17T18:51:58.470Z,9.00
2022-09-17T18:54:25.563Z,9.00
2022-09-17T18:56:52.339Z,9.00
2022-09-17T18:59:19.143Z,9.00
2022-09-17T19:01:45.847Z,9.00
2022-09-17T19:04:13.063Z,9.00
2022-09-17T19:06:40.828Z,8.90
2022-09-17T19:09:07.607Z,8.90
2022-09-17T19:11:36.266Z,8.90
2022-09-17T19:14:03.651Z,8.90
2022-09-17T19:16:30.515Z,9.00
2022-09-17T19:18:57.433Z,9.00
2022-09-17T19:21:24.303Z,8.90
2022-09-17T19:23:52.265Z,8.90
2022-09-17T19:26:24.554Z,8.90
2022-09-17T19:28:57.864Z,9.00
2022-09-17T19:31:25.263Z,8.90
2022-09-17T19:33:52.915Z,8.90
2022-09-17T19:36:20.554Z,8.80
2022-09-17T19:38:48.108Z,8.80
2022-09-17T19:41:18.470Z,8.80
2022-09-17T19:43:45.995Z,8.80
2022-09-17T19:46:14.876Z,8.90
2022-09-17T19:48:50.495Z,8.90
2022-09-17T19:51:18.334Z,8.80
2022-09-17T19:53:45.753Z,8.70
2022-09-17T19:56:21.062Z,8.90
2022-09-17T19:58:48.439Z,8.90
2022-09-17T20:01:15.615Z,9.00
2022-09-17T20:03:44.980Z,9.10
2022-09-17T20:06:14.397Z,9.10
2022-09-17T20:08:49.543Z,9.00
2022-09-17T20:11:17.079Z,9.00
2022-09-17T20:13:43.884Z,9.00
2022-09-17T20:16:17.458Z,9.00
2022-09-17T20:18:44.887Z,9.00
2022-09-17T20:21:17.431Z,9.00
2022-09-17T20:23:45.476Z,8.90
2022-09-17T20:26:13.584Z,8.90
2022-09-17T20:28:40.786Z,8.90
2022-09-17T20:31:12.409Z,8.90
2022-09-17T20:33:39.230Z,8.90
2022-09-17T20:36:10.440Z,8.80
2022-09-17T20:41:25.223Z,8.70
2022-09-17T20:43:53.523Z,8.70
2022-09-17T20:46:27.564Z,8.60
2022-09-17T20:48:57.444Z,8.60
2022-09-17T20:51:26.873Z,8.60
2022-09-17T20:53:53.723Z,8.70
2022-09-17T20:56:22.845Z,8.60
2022-09-17T20:59:07.735Z,8.60
2022-09-17T21:01:37.258Z,8.60
2022-09-17T21:04:06.904Z,8.60
2022-09-17T21:06:38.786Z,8.60
2022-09-17T21:09:06.305Z,8.70
2022-09-17T21:11:34.215Z,8.70
2022-09-17T21:14:01.496Z,8.70
2022-09-17T21:16:29.270Z,8.80
2022-09-17T21:18:58.162Z,8.80
2022-09-17T21:21:26.314Z,8.70
2022-09-17T21:23:53.225Z,8.70
2022-09-17T21:26:22.356Z,8.70
2022-09-17T21:28:51.205Z,8.70
2022-09-17T21:31:32.443Z,8.70
2022-09-17T21:34:05.596Z,8.60
2022-09-17T21:36:35.425Z,8.60
2022-09-17T21:39:05.832Z,8.50
2022-09-17T21:41:32.648Z,8.60
2022-09-17T21:43:59.645Z,8.50
2022-09-17T21:46:33.503Z,8.60
2022-09-17T21:49:04.459Z,8.60
2022-09-17T21:51:38.236Z,8.60
2022-09-17T21:54:11.486Z,8.60
2022-09-17T21:56:38.783Z,8.50
2022-09-17T21:59:11.558Z,8.30
2022-09-17T22:01:47.342Z,8.40
2022-09-17T22:04:19.701Z,8.40
2022-09-17T22:06:48.044Z,8.30
2022-09-17T22:09:21.211Z,8.40
2022-09-17T22:11:48.235Z,8.30
2022-09-17T22:14:20.319Z,8.30
2022-09-17T22:16:49.372Z,8.30
2022-09-17T22:19:18.342Z,8.30
2022-09-17T22:21:47.826Z,8.30
2022-09-17T22:24:16.072Z,8.40
2022-09-17T22:26:45.627Z,8.30
2022-09-17T22:29:18.426Z,8.30
2022-09-17T22:31:46.785Z,8.30
2022-09-17T22:34:19.655Z,8.30
2022-09-17T22:36:47.034Z,8.30
2022-09-17T22:39:13.943Z,8.30
2022-09-17T22:41:45.891Z,8.30
2022-09-17T22:44:18.278Z,8.40
2022-09-17T22:46:49.853Z,8.50
2022-09-17T22:49:17.334Z,8.50
2022-09-17T22:51:46.534Z,8.40
2022-09-17T22:54:15.922Z,8.40
2022-09-17T22:56:43.430Z,8.50
2022-09-17T22:59:10.868Z,8.50
2022-09-17T23:01:39.758Z,8.50
2022-09-17T23:04:06.943Z,8.50
2022-09-17T23:06:36.453Z,8.50
2022-09-17T23:09:03.545Z,8.50
2022-09-17T23:11:36.631Z,8.60
2022-09-17T23:14:06.606Z,8.50
2022-09-17T23:16:42.196Z,8.50
2022-09-17T23:19:09.197Z,8.60
2022-09-17T23:21:36.848Z,8.60
2022-09-17T23:24:03.717Z,8.50
2022-09-17T23:26:30.614Z,8.60
2022-09-17T23:29:01.178Z,8.70
2022-09-17T23:31:30.809Z,8.70
2022-09-17T23:33:58.843Z,8.60
2022-09-17T23:36:28.505Z,8.70
2022-09-17T23:38:56.798Z,8.70
2022-09-17T23:41:26.482Z,8.60
2022-09-17T23:43:55.488Z,8.70
2022-09-17T23:46:24.487Z,8.70
2022-09-17T23:48:53.370Z,8.60
2022-09-17T23:51:24.923Z,8.70
2022-09-17T23:53:52.037Z,8.80
2022-09-17T23:56:21.744Z,8.80
2022-09-17T23:58:49.726Z,8.80
